Kettering, Ohio
Current Conditions -  °F | °C
As of 12:29 AM on Wednesday 22 Oct 2014 (Local Time) from KMGY Reporting Station
Overcast Overcast  
Wind Chill: 41°   Ceiling: 2800
Heat Index: 46°   Visibility: 10mi
Dew Point: 37°   Wind: 12mph
Humidity: 71%   Direction: 20°NNE
Pressure: 30.17"   Gusts: NA
Location:  39.7°N, 84.16°W
Report Text: KMGY 220429Z AUTO 02010KT 10SM OVC028 08/03 A3017 RMK AO2 T00780028
Loading
Personal Weather Stations






























Interactive Weather Map
Tropical Storm Tracking
New forecast layout! Learn more

10-Day Weather Forecast

Advertisements
Track Severe Weather on mobile